sensor_id;sensor_type;location;lat;lon;timestamp;P1;durP1;ratioP1;P2;durP2;ratioP2
2966;SDS011;1493;51.496;7.210;2023-04-25T00:01:30;24.00;;;7.00;;
2966;SDS011;1493;51.496;7.210;2023-04-25T00:04:00;10.53;;;4.00;;
2966;SDS011;1493;51.496;7.210;2023-04-25T00:06:28;7.83;;;4.73;;
2966;SDS011;1493;51.496;7.210;2023-04-25T00:08:56;14.20;;;4.90;;
2966;SDS011;1493;51.496;7.210;2023-04-25T00:11:24;20.67;;;8.87;;
2966;SDS011;1493;51.496;7.210;2023-04-25T00:13:50;17.63;;;7.87;;
2966;SDS011;1493;51.496;7.210;2023-04-25T00:16:17;29.10;;;26.27;;
2966;SDS011;1493;51.496;7.210;2023-04-25T00:18:44;13.43;;;6.73;;
2966;SDS011;1493;51.496;7.210;2023-04-25T00:21:16;10.60;;;5.13;;
2966;SDS011;1493;51.496;7.210;2023-04-25T00:23:44;8.80;;;4.83;;
2966;SDS011;1493;51.496;7.210;2023-04-25T00:26:11;5.77;;;4.57;;
2966;SDS011;1493;51.496;7.210;2023-04-25T00:28:38;12.53;;;4.47;;
2966;SDS011;1493;51.496;7.210;2023-04-25T00:31:05;13.80;;;5.67;;
2966;SDS011;1493;51.496;7.210;2023-04-25T00:33:32;7.17;;;4.33;;
2966;SDS011;1493;51.496;7.210;2023-04-25T00:35:59;8.33;;;3.67;;
2966;SDS011;1493;51.496;7.210;2023-04-25T00:38:26;8.17;;;4.03;;
2966;SDS011;1493;51.496;7.210;2023-04-25T00:40:54;12.70;;;5.07;;
2966;SDS011;1493;51.496;7.210;2023-04-25T00:43:22;12.03;;;4.70;;
2966;SDS011;1493;51.496;7.210;2023-04-25T00:45:51;5.30;;;3.53;;
2966;SDS011;1493;51.496;7.210;2023-04-25T00:48:21;5.23;;;4.20;;
2966;SDS011;1493;51.496;7.210;2023-04-25T00:50:49;6.80;;;3.60;;
2966;SDS011;1493;51.496;7.210;2023-04-25T00:53:18;4.77;;;3.13;;
2966;SDS011;1493;51.496;7.210;2023-04-25T00:55:45;11.17;;;4.27;;
2966;SDS011;1493;51.496;7.210;2023-04-25T00:58:14;10.53;;;4.10;;
2966;SDS011;1493;51.496;7.210;2023-04-25T01:00:41;6.37;;;3.80;;
2966;SDS011;1493;51.496;7.210;2023-04-25T01:03:08;6.87;;;3.80;;
2966;SDS011;1493;51.496;7.210;2023-04-25T01:05:35;6.73;;;3.80;;
2966;SDS011;1493;51.496;7.210;2023-04-25T01:08:02;6.03;;;3.43;;
2966;SDS011;1493;51.496;7.210;2023-04-25T01:10:29;6.57;;;3.73;;
2966;SDS011;1493;51.496;7.210;2023-04-25T01:12:56;9.93;;;4.37;;
2966;SDS011;1493;51.496;7.210;2023-04-25T01:15:24;8.10;;;3.50;;
2966;SDS011;1493;51.496;7.210;2023-04-25T01:17:51;7.23;;;3.80;;
2966;SDS011;1493;51.496;7.210;2023-04-25T01:20:18;9.43;;;4.60;;
2966;SDS011;1493;51.496;7.210;2023-04-25T01:22:48;5.20;;;3.30;;
2966;SDS011;1493;51.496;7.210;2023-04-25T01:25:15;8.70;;;4.03;;
2966;SDS011;1493;51.496;7.210;2023-04-25T01:27:43;15.07;;;5.70;;
2966;SDS011;1493;51.496;7.210;2023-04-25T01:30:10;8.57;;;4.57;;
2966;SDS011;1493;51.496;7.210;2023-04-25T01:32:37;11.00;;;5.40;;
2966;SDS011;1493;51.496;7.210;2023-04-25T01:35:05;9.20;;;5.07;;
2966;SDS011;1493;51.496;7.210;2023-04-25T01:37:34;9.80;;;5.70;;
2966;SDS011;1493;51.496;7.210;2023-04-25T01:40:03;16.47;;;5.70;;
2966;SDS011;1493;51.496;7.210;2023-04-25T01:42:31;10.50;;;6.37;;
2966;SDS011;1493;51.496;7.210;2023-04-25T01:44:58;9.50;;;4.70;;
2966;SDS011;1493;51.496;7.210;2023-04-25T01:47:25;13.37;;;5.10;;
2966;SDS011;1493;51.496;7.210;2023-04-25T01:49:52;10.20;;;6.07;;
2966;SDS011;1493;51.496;7.210;2023-04-25T01:52:18;13.63;;;6.00;;
2966;SDS011;1493;51.496;7.210;2023-04-25T01:54:45;11.00;;;5.07;;
2966;SDS011;1493;51.496;7.210;2023-04-25T01:57:14;9.90;;;5.70;;
2966;SDS011;1493;51.496;7.210;2023-04-25T01:59:41;13.43;;;6.13;;
2966;SDS011;1493;51.496;7.210;2023-04-25T02:02:09;11.73;;;5.83;;
2966;SDS011;1493;51.496;7.210;2023-04-25T02:04:35;11.40;;;6.40;;
2966;SDS011;1493;51.496;7.210;2023-04-25T02:07:03;11.60;;;6.20;;
2966;SDS011;1493;51.496;7.210;2023-04-25T02:09:30;11.57;;;7.47;;
2966;SDS011;1493;51.496;7.210;2023-04-25T02:11:57;11.97;;;6.27;;
2966;SDS011;1493;51.496;7.210;2023-04-25T02:14:26;9.97;;;7.23;;
2966;SDS011;1493;51.496;7.210;2023-04-25T02:16:53;9.77;;;6.20;;
2966;SDS011;1493;51.496;7.210;2023-04-25T02:19:20;11.90;;;5.20;;
2966;SDS011;1493;51.496;7.210;2023-04-25T02:21:47;13.27;;;6.37;;
2966;SDS011;1493;51.496;7.210;2023-04-25T02:24:14;10.80;;;5.30;;
2966;SDS011;1493;51.496;7.210;2023-04-25T02:26:40;8.90;;;5.43;;
2966;SDS011;1493;51.496;7.210;2023-04-25T02:29:07;9.53;;;5.40;;
2966;SDS011;1493;51.496;7.210;2023-04-25T02:31:36;8.30;;;5.07;;
2966;SDS011;1493;51.496;7.210;2023-04-25T02:34:03;13.30;;;5.40;;
2966;SDS011;1493;51.496;7.210;2023-04-25T02:36:30;11.17;;;5.40;;
2966;SDS011;1493;51.496;7.210;2023-04-25T02:38:59;12.70;;;5.10;;
2966;SDS011;1493;51.496;7.210;2023-04-25T02:41:26;12.23;;;4.80;;
2966;SDS011;1493;51.496;7.210;2023-04-25T02:43:53;9.23;;;6.30;;
2966;SDS011;1493;51.496;7.210;2023-04-25T02:46:19;13.20;;;5.67;;
2966;SDS011;1493;51.496;7.210;2023-04-25T02:48:48;7.07;;;5.17;;
2966;SDS011;1493;51.496;7.210;2023-04-25T02:51:14;9.80;;;5.80;;
2966;SDS011;1493;51.496;7.210;2023-04-25T02:53:42;8.00;;;4.80;;
2966;SDS011;1493;51.496;7.210;2023-04-25T02:56:08;8.53;;;4.47;;
2966;SDS011;1493;51.496;7.210;2023-04-25T02:58:35;8.90;;;5.00;;
2966;SDS011;1493;51.496;7.210;2023-04-25T03:01:02;10.27;;;7.43;;
2966;SDS011;1493;51.496;7.210;2023-04-25T03:03:29;10.43;;;6.10;;
2966;SDS011;1493;51.496;7.210;2023-04-25T03:05:57;8.40;;;5.00;;
2966;SDS011;1493;51.496;7.210;2023-04-25T03:08:24;7.80;;;5.77;;
2966;SDS011;1493;51.496;7.210;2023-04-25T03:10:54;10.90;;;6.13;;
2966;SDS011;1493;51.496;7.210;2023-04-25T03:13:22;14.50;;;5.93;;
2966;SDS011;1493;51.496;7.210;2023-04-25T03:15:49;10.10;;;5.17;;
2966;SDS011;1493;51.496;7.210;2023-04-25T03:18:15;6.63;;;4.70;;
2966;SDS011;1493;51.496;7.210;2023-04-25T03:20:42;11.87;;;5.40;;
2966;SDS011;1493;51.496;7.210;2023-04-25T03:23:11;11.83;;;4.97;;
2966;SDS011;1493;51.496;7.210;2023-04-25T03:25:37;9.40;;;5.17;;
2966;SDS011;1493;51.496;7.210;2023-04-25T03:28:04;9.43;;;4.70;;
2966;SDS011;1493;51.496;7.210;2023-04-25T03:30:31;12.13;;;5.80;;
2966;SDS011;1493;51.496;7.210;2023-04-25T03:32:58;8.57;;;5.10;;
2966;SDS011;1493;51.496;7.210;2023-04-25T03:35:25;11.27;;;5.97;;
2966;SDS011;1493;51.496;7.210;2023-04-25T03:37:51;10.47;;;6.30;;
2966;SDS011;1493;51.496;7.210;2023-04-25T03:40:19;11.70;;;5.70;;
2966;SDS011;1493;51.496;7.210;2023-04-25T03:42:46;13.73;;;6.00;;
2966;SDS011;1493;51.496;7.210;2023-04-25T03:45:13;8.90;;;5.77;;
2966;SDS011;1493;51.496;7.210;2023-04-25T03:47:40;13.60;;;6.40;;
2966;SDS011;1493;51.496;7.210;2023-04-25T03:50:07;14.50;;;7.37;;
2966;SDS011;1493;51.496;7.210;2023-04-25T03:52:34;15.97;;;8.70;;
2966;SDS011;1493;51.496;7.210;2023-04-25T03:55:01;12.83;;;6.40;;
2966;SDS011;1493;51.496;7.210;2023-04-25T03:57:31;10.30;;;6.53;;
2966;SDS011;1493;51.496;7.210;2023-04-25T03:59:57;12.37;;;7.03;;
2966;SDS011;1493;51.496;7.210;2023-04-25T04:02:24;12.73;;;6.63;;
2966;SDS011;1493;51.496;7.210;2023-04-25T04:04:51;11.67;;;6.53;;
2966;SDS011;1493;51.496;7.210;2023-04-25T04:07:18;14.13;;;6.43;;
2966;SDS011;1493;51.496;7.210;2023-04-25T04:09:45;7.87;;;2.93;;
2966;SDS011;1493;51.496;7.210;2023-04-25T04:12:11;11.87;;;2.37;;
2966;SDS011;1493;51.496;7.210;2023-04-25T04:14:40;7.50;;;2.87;;
2966;SDS011;1493;51.496;7.210;2023-04-25T04:17:06;7.97;;;2.97;;
2966;SDS011;1493;51.496;7.210;2023-04-25T04:19:33;4.13;;;2.40;;
2966;SDS011;1493;51.496;7.210;2023-04-25T04:22:00;6.33;;;3.30;;
2966;SDS011;1493;51.496;7.210;2023-04-25T04:24:27;8.50;;;3.20;;
2966;SDS011;1493;51.496;7.210;2023-04-25T04:26:53;8.90;;;3.03;;
2966;SDS011;1493;51.496;7.210;2023-04-25T04:29:21;9.20;;;3.20;;
2966;SDS011;1493;51.496;7.210;2023-04-25T04:31:50;6.70;;;3.10;;
2966;SDS011;1493;51.496;7.210;2023-04-25T04:34:17;9.70;;;3.77;;
2966;SDS011;1493;51.496;7.210;2023-04-25T04:36:44;7.87;;;4.47;;
2966;SDS011;1493;51.496;7.210;2023-04-25T04:39:11;10.73;;;3.47;;
2966;SDS011;1493;51.496;7.210;2023-04-25T04:41:38;6.70;;;2.80;;
2966;SDS011;1493;51.496;7.210;2023-04-25T04:44:05;11.17;;;2.67;;
2966;SDS011;1493;51.496;7.210;2023-04-25T04:46:33;13.00;;;3.10;;
2966;SDS011;1493;51.496;7.210;2023-04-25T04:49:04;11.90;;;3.20;;
2966;SDS011;1493;51.496;7.210;2023-04-25T04:51:31;5.87;;;2.53;;
2966;SDS011;1493;51.496;7.210;2023-04-25T04:53:58;10.57;;;3.60;;
2966;SDS011;1493;51.496;7.210;2023-04-25T04:56:27;6.53;;;3.00;;
2966;SDS011;1493;51.496;7.210;2023-04-25T04:58:54;7.37;;;3.13;;
2966;SDS011;1493;51.496;7.210;2023-04-25T05:01:21;7.40;;;3.70;;
2966;SDS011;1493;51.496;7.210;2023-04-25T05:03:48;9.37;;;4.03;;
2966;SDS011;1493;51.496;7.210;2023-04-25T05:06:16;9.07;;;3.87;;
2966;SDS011;1493;51.496;7.210;2023-04-25T05:08:43;6.13;;;3.40;;
2966;SDS011;1493;51.496;7.210;2023-04-25T05:11:10;12.13;;;5.10;;
2966;SDS011;1493;51.496;7.210;2023-04-25T05:13:37;8.00;;;4.23;;
2966;SDS011;1493;51.496;7.210;2023-04-25T05:16:04;8.50;;;3.30;;
2966;SDS011;1493;51.496;7.210;2023-04-25T05:18:31;8.83;;;3.40;;
2966;SDS011;1493;51.496;7.210;2023-04-25T05:20:58;11.07;;;5.73;;
2966;SDS011;1493;51.496;7.210;2023-04-25T05:23:26;6.87;;;3.40;;
2966;SDS011;1493;51.496;7.210;2023-04-25T05:25:55;9.63;;;4.60;;
2966;SDS011;1493;51.496;7.210;2023-04-25T05:28:22;9.53;;;4.50;;
2966;SDS011;1493;51.496;7.210;2023-04-25T05:30:49;11.13;;;4.57;;
2966;SDS011;1493;51.496;7.210;2023-04-25T05:33:15;7.43;;;4.17;;
2966;SDS011;1493;51.496;7.210;2023-04-25T05:35:42;8.60;;;4.67;;
2966;SDS011;1493;51.496;7.210;2023-04-25T05:38:09;6.93;;;4.37;;
2966;SDS011;1493;51.496;7.210;2023-04-25T05:40:37;11.03;;;4.77;;
2966;SDS011;1493;51.496;7.210;2023-04-25T05:43:04;16.43;;;7.30;;
2966;SDS011;1493;51.496;7.210;2023-04-25T05:45:32;13.87;;;6.37;;
2966;SDS011;1493;51.496;7.210;2023-04-25T05:47:59;12.47;;;6.00;;
2966;SDS011;1493;51.496;7.210;2023-04-25T05:50:25;15.47;;;5.10;;
2966;SDS011;1493;51.496;7.210;2023-04-25T05:52:52;12.60;;;6.23;;
2966;SDS011;1493;51.496;7.210;2023-04-25T05:55:19;15.47;;;6.07;;
2966;SDS011;1493;51.496;7.210;2023-04-25T05:57:47;8.77;;;5.40;;
2966;SDS011;1493;51.496;7.210;2023-04-25T06:00:14;12.13;;;5.40;;
2966;SDS011;1493;51.496;7.210;2023-04-25T06:02:41;14.70;;;6.27;;
2966;SDS011;1493;51.496;7.210;2023-04-25T06:05:08;12.73;;;5.70;;
2966;SDS011;1493;51.496;7.210;2023-04-25T06:07:35;12.80;;;6.60;;
2966;SDS011;1493;51.496;7.210;2023-04-25T06:10:02;12.60;;;9.33;;
2966;SDS011;1493;51.496;7.210;2023-04-25T06:12:31;12.70;;;6.63;;
2966;SDS011;1493;51.496;7.210;2023-04-25T06:14:59;21.70;;;7.97;;
2966;SDS011;1493;51.496;7.210;2023-04-25T06:17:26;10.40;;;5.20;;
2966;SDS011;1493;51.496;7.210;2023-04-25T06:19:53;10.60;;;5.30;;
2966;SDS011;1493;51.496;7.210;2023-04-25T06:22:20;10.17;;;4.33;;
2966;SDS011;1493;51.496;7.210;2023-04-25T06:24:46;13.33;;;5.67;;
2966;SDS011;1493;51.496;7.210;2023-04-25T06:27:13;12.50;;;5.73;;
2966;SDS011;1493;51.496;7.210;2023-04-25T06:29:40;13.40;;;6.67;;
2966;SDS011;1493;51.496;7.210;2023-04-25T06:32:08;14.13;;;7.37;;
2966;SDS011;1493;51.496;7.210;2023-04-25T06:34:37;9.10;;;6.07;;
2966;SDS011;1493;51.496;7.210;2023-04-25T06:37:03;10.07;;;6.63;;
2966;SDS011;1493;51.496;7.210;2023-04-25T06:39:30;15.47;;;5.87;;
2966;SDS011;1493;51.496;7.210;2023-04-25T06:41:57;11.60;;;6.00;;
2966;SDS011;1493;51.496;7.210;2023-04-25T06:44:24;44.67;;;7.60;;
2966;SDS011;1493;51.496;7.210;2023-04-25T06:46:51;16.50;;;5.93;;
2966;SDS011;1493;51.496;7.210;2023-04-25T06:49:19;11.73;;;5.60;;
2966;SDS011;1493;51.496;7.210;2023-04-25T06:51:46;14.10;;;5.30;;
2966;SDS011;1493;51.496;7.210;2023-04-25T06:54:12;10.37;;;4.60;;
2966;SDS011;1493;51.496;7.210;2023-04-25T06:56:39;8.83;;;4.90;;
2966;SDS011;1493;51.496;7.210;2023-04-25T06:59:06;16.80;;;5.10;;
2966;SDS011;1493;51.496;7.210;2023-04-25T07:01:34;13.27;;;5.73;;
2966;SDS011;1493;51.496;7.210;2023-04-25T07:04:01;12.73;;;5.40;;
2966;SDS011;1493;51.496;7.210;2023-04-25T07:06:29;13.83;;;5.03;;
2966;SDS011;1493;51.496;7.210;2023-04-25T07:08:56;13.13;;;5.20;;
2966;SDS011;1493;51.496;7.210;2023-04-25T07:11:23;11.33;;;4.57;;
2966;SDS011;1493;51.496;7.210;2023-04-25T07:13:50;12.03;;;4.80;;
2966;SDS011;1493;51.496;7.210;2023-04-25T07:16:16;9.77;;;4.60;;
2966;SDS011;1493;51.496;7.210;2023-04-25T07:18:43;14.07;;;5.87;;
2966;SDS011;1493;51.496;7.210;2023-04-25T07:21:10;9.07;;;4.77;;
2966;SDS011;1493;51.496;7.210;2023-04-25T07:23:39;18.13;;;6.03;;
2966;SDS011;1493;51.496;7.210;2023-04-25T07:26:06;11.33;;;5.33;;
2966;SDS011;1493;51.496;7.210;2023-04-25T07:28:33;6.60;;;3.90;;
2966;SDS011;1493;51.496;7.210;2023-04-25T07:31:00;11.40;;;4.67;;
2966;SDS011;1493;51.496;7.210;2023-04-25T07:33:27;7.00;;;4.03;;
2966;SDS011;1493;51.496;7.210;2023-04-25T07:35:53;8.97;;;4.00;;
2966;SDS011;1493;51.496;7.210;2023-04-25T07:38:21;5.63;;;3.10;;
2966;SDS011;1493;51.496;7.210;2023-04-25T07:40:49;11.93;;;4.13;;
2966;SDS011;1493;51.496;7.210;2023-04-25T07:43:16;8.30;;;2.87;;
2966;SDS011;1493;51.496;7.210;2023-04-25T07:45:43;8.67;;;3.60;;
2966;SDS011;1493;51.496;7.210;2023-04-25T07:48:10;11.10;;;4.40;;
2966;SDS011;1493;51.496;7.210;2023-04-25T07:50:37;9.07;;;3.60;;
2966;SDS011;1493;51.496;7.210;2023-04-25T07:53:04;7.03;;;2.67;;
2966;SDS011;1493;51.496;7.210;2023-04-25T07:55:31;9.53;;;3.20;;
2966;SDS011;1493;51.496;7.210;2023-04-25T07:57:59;7.10;;;2.47;;
2966;SDS011;1493;51.496;7.210;2023-04-25T08:00:26;5.67;;;3.00;;
2966;SDS011;1493;51.496;7.210;2023-04-25T08:02:53;7.30;;;2.30;;
2966;SDS011;1493;51.496;7.210;2023-04-25T08:05:20;7.17;;;2.50;;
2966;SDS011;1493;51.496;7.210;2023-04-25T08:07:47;7.27;;;2.07;;
2966;SDS011;1493;51.496;7.210;2023-04-25T08:10:14;15.30;;;2.13;;
2966;SDS011;1493;51.496;7.210;2023-04-25T08:12:40;4.73;;;2.23;;
2966;SDS011;1493;51.496;7.210;2023-04-25T08:15:09;6.20;;;2.33;;
2966;SDS011;1493;51.496;7.210;2023-04-25T08:17:36;8.03;;;2.60;;
2966;SDS011;1493;51.496;7.210;2023-04-25T08:20:03;7.93;;;2.90;;
2966;SDS011;1493;51.496;7.210;2023-04-25T08:22:31;5.40;;;2.47;;
2966;SDS011;1493;51.496;7.210;2023-04-25T08:24:59;12.63;;;2.43;;
2966;SDS011;1493;51.496;7.210;2023-04-25T08:27:25;5.13;;;2.40;;
2966;SDS011;1493;51.496;7.210;2023-04-25T08:29:52;5.87;;;2.13;;
2966;SDS011;1493;51.496;7.210;2023-04-25T08:32:20;7.00;;;1.70;;
2966;SDS011;1493;51.496;7.210;2023-04-25T08:34:47;5.33;;;1.70;;
2966;SDS011;1493;51.496;7.210;2023-04-25T08:37:14;9.20;;;1.97;;
2966;SDS011;1493;51.496;7.210;2023-04-25T08:39:41;7.40;;;1.60;;
2966;SDS011;1493;51.496;7.210;2023-04-25T08:42:08;5.70;;;1.80;;
2966;SDS011;1493;51.496;7.210;2023-04-25T08:44:35;4.60;;;2.30;;
2966;SDS011;1493;51.496;7.210;2023-04-25T08:47:03;5.33;;;1.80;;
2966;SDS011;1493;51.496;7.210;2023-04-25T08:49:32;7.20;;;1.97;;
2966;SDS011;1493;51.496;7.210;2023-04-25T08:52:00;3.90;;;1.50;;
2966;SDS011;1493;51.496;7.210;2023-04-25T08:54:29;7.40;;;2.07;;
2966;SDS011;1493;51.496;7.210;2023-04-25T08:56:58;7.67;;;2.00;;
2966;SDS011;1493;51.496;7.210;2023-04-25T08:59:29;6.30;;;1.80;;
2966;SDS011;1493;51.496;7.210;2023-04-25T09:01:56;4.93;;;1.77;;
2966;SDS011;1493;51.496;7.210;2023-04-25T09:04:23;4.80;;;1.70;;
2966;SDS011;1493;51.496;7.210;2023-04-25T09:06:52;5.80;;;1.80;;
2966;SDS011;1493;51.496;7.210;2023-04-25T09:09:19;7.23;;;1.50;;
2966;SDS011;1493;51.496;7.210;2023-04-25T09:11:46;12.37;;;2.10;;
2966;SDS011;1493;51.496;7.210;2023-04-25T09:14:14;5.63;;;2.80;;
2966;SDS011;1493;51.496;7.210;2023-04-25T09:19:28;6.90;;;2.20;;
2966;SDS011;1493;51.496;7.210;2023-04-25T09:21:57;7.57;;;1.90;;
2966;SDS011;1493;51.496;7.210;2023-04-25T09:26:57;5.00;;;2.10;;
2966;SDS011;1493;51.496;7.210;2023-04-25T09:29:28;4.77;;;2.27;;
2966;SDS011;1493;51.496;7.210;2023-04-25T09:32:05;5.53;;;2.10;;
2966;SDS011;1493;51.496;7.210;2023-04-25T09:34:38;6.20;;;2.23;;
2966;SDS011;1493;51.496;7.210;2023-04-25T09:37:09;4.73;;;2.10;;
2966;SDS011;1493;51.496;7.210;2023-04-25T09:39:37;5.03;;;1.80;;
2966;SDS011;1493;51.496;7.210;2023-04-25T09:42:04;5.33;;;1.67;;
2966;SDS011;1493;51.496;7.210;2023-04-25T09:44:31;4.87;;;2.70;;
2966;SDS011;1493;51.496;7.210;2023-04-25T09:46:58;10.37;;;2.83;;
2966;SDS011;1493;51.496;7.210;2023-04-25T09:49:25;5.57;;;1.80;;
2966;SDS011;1493;51.496;7.210;2023-04-25T09:51:56;4.20;;;1.70;;
2966;SDS011;1493;51.496;7.210;2023-04-25T09:54:24;2.87;;;1.00;;
2966;SDS011;1493;51.496;7.210;2023-04-25T09:56:52;4.70;;;1.03;;
2966;SDS011;1493;51.496;7.210;2023-04-25T09:59:20;4.20;;;1.63;;
2966;SDS011;1493;51.496;7.210;2023-04-25T10:01:48;5.33;;;2.10;;
2966;SDS011;1493;51.496;7.210;2023-04-25T10:04:17;4.43;;;1.20;;
2966;SDS011;1493;51.496;7.210;2023-04-25T10:06:49;3.70;;;1.70;;
2966;SDS011;1493;51.496;7.210;2023-04-25T10:09:17;3.70;;;1.50;;
2966;SDS011;1493;51.496;7.210;2023-04-25T10:11:49;7.67;;;2.00;;
2966;SDS011;1493;51.496;7.210;2023-04-25T10:14:17;5.20;;;1.60;;
2966;SDS011;1493;51.496;7.210;2023-04-25T10:16:45;4.57;;;1.33;;
2966;SDS011;1493;51.496;7.210;2023-04-25T10:19:14;8.17;;;1.60;;
2966;SDS011;1493;51.496;7.210;2023-04-25T10:21:44;4.83;;;1.27;;
2966;SDS011;1493;51.496;7.210;2023-04-25T10:24:16;4.07;;;1.50;;
2966;SDS011;1493;51.496;7.210;2023-04-25T10:26:43;3.47;;;1.30;;
2966;SDS011;1493;51.496;7.210;2023-04-25T10:29:11;3.17;;;1.47;;
2966;SDS011;1493;51.496;7.210;2023-04-25T10:31:44;4.43;;;1.67;;
2966;SDS011;1493;51.496;7.210;2023-04-25T10:34:12;3.37;;;1.40;;
2966;SDS011;1493;51.496;7.210;2023-04-25T10:36:39;5.60;;;1.53;;
2966;SDS011;1493;51.496;7.210;2023-04-25T10:39:06;5.60;;;1.90;;
2966;SDS011;1493;51.496;7.210;2023-04-25T10:41:45;4.13;;;1.20;;
2966;SDS011;1493;51.496;7.210;2023-04-25T10:44:14;6.13;;;1.10;;
2966;SDS011;1493;51.496;7.210;2023-04-25T10:46:41;4.20;;;1.70;;
2966;SDS011;1493;51.496;7.210;2023-04-25T10:49:14;7.73;;;1.40;;
2966;SDS011;1493;51.496;7.210;2023-04-25T10:52:10;5.43;;;2.27;;
2966;SDS011;1493;51.496;7.210;2023-04-25T10:54:41;3.47;;;1.00;;
2966;SDS011;1493;51.496;7.210;2023-04-25T10:59:54;4.50;;;1.80;;
2966;SDS011;1493;51.496;7.210;2023-04-25T11:02:25;7.60;;;1.30;;
2966;SDS011;1493;51.496;7.210;2023-04-25T11:04:52;6.63;;;1.70;;
2966;SDS011;1493;51.496;7.210;2023-04-25T11:07:22;5.33;;;2.17;;
2966;SDS011;1493;51.496;7.210;2023-04-25T11:09:55;4.73;;;1.67;;
2966;SDS011;1493;51.496;7.210;2023-04-25T11:12:22;4.67;;;1.90;;
2966;SDS011;1493;51.496;7.210;2023-04-25T11:14:59;6.03;;;1.70;;
2966;SDS011;1493;51.496;7.210;2023-04-25T11:17:27;7.67;;;2.00;;
2966;SDS011;1493;51.496;7.210;2023-04-25T11:19:54;4.13;;;1.50;;
2966;SDS011;1493;51.496;7.210;2023-04-25T11:22:22;5.80;;;1.50;;
2966;SDS011;1493;51.496;7.210;2023-04-25T11:24:49;2.90;;;1.20;;
2966;SDS011;1493;51.496;7.210;2023-04-25T11:27:16;3.30;;;1.70;;
2966;SDS011;1493;51.496;7.210;2023-04-25T11:29:43;2.93;;;1.50;;
2966;SDS011;1493;51.496;7.210;2023-04-25T11:32:14;7.93;;;2.07;;
2966;SDS011;1493;51.496;7.210;2023-04-25T11:34:43;5.93;;;1.77;;
2966;SDS011;1493;51.496;7.210;2023-04-25T11:37:11;5.27;;;1.40;;
2966;SDS011;1493;51.496;7.210;2023-04-25T11:39:39;3.80;;;1.63;;
2966;SDS011;1493;51.496;7.210;2023-04-25T11:42:09;3.60;;;1.50;;
2966;SDS011;1493;51.496;7.210;2023-04-25T11:44:37;5.97;;;1.80;;
2966;SDS011;1493;51.496;7.210;2023-04-25T11:47:04;4.03;;;1.80;;
2966;SDS011;1493;51.496;7.210;2023-04-25T11:49:33;3.67;;;1.30;;
2966;SDS011;1493;51.496;7.210;2023-04-25T11:52:00;4.73;;;1.83;;
2966;SDS011;1493;51.496;7.210;2023-04-25T11:54:27;3.80;;;1.50;;
2966;SDS011;1493;51.496;7.210;2023-04-25T11:56:54;2.40;;;1.67;;
2966;SDS011;1493;51.496;7.210;2023-04-25T11:59:22;3.97;;;1.40;;
2966;SDS011;1493;51.496;7.210;2023-04-25T12:01:51;5.53;;;1.70;;
2966;SDS011;1493;51.496;7.210;2023-04-25T12:04:19;2.90;;;1.33;;
2966;SDS011;1493;51.496;7.210;2023-04-25T12:06:49;3.07;;;1.10;;
2966;SDS011;1493;51.496;7.210;2023-04-25T12:09:17;3.17;;;1.40;;
2966;SDS011;1493;51.496;7.210;2023-04-25T12:11:46;27.20;;;16.80;;
2966;SDS011;1493;51.496;7.210;2023-04-25T12:14:20;6.13;;;3.63;;
2966;SDS011;1493;51.496;7.210;2023-04-25T12:16:49;2.73;;;1.20;;
2966;SDS011;1493;51.496;7.210;2023-04-25T12:19:17;3.00;;;1.07;;
2966;SDS011;1493;51.496;7.210;2023-04-25T12:21:45;2.80;;;1.17;;
2966;SDS011;1493;51.496;7.210;2023-04-25T12:24:16;3.70;;;1.43;;
2966;SDS011;1493;51.496;7.210;2023-04-25T12:26:48;3.30;;;1.60;;
2966;SDS011;1493;51.496;7.210;2023-04-25T12:29:17;2.53;;;1.00;;
2966;SDS011;1493;51.496;7.210;2023-04-25T12:31:44;3.07;;;1.10;;
2966;SDS011;1493;51.496;7.210;2023-04-25T12:34:11;3.30;;;1.07;;
2966;SDS011;1493;51.496;7.210;2023-04-25T12:36:38;2.63;;;1.10;;
2966;SDS011;1493;51.496;7.210;2023-04-25T12:39:05;3.77;;;1.47;;
2966;SDS011;1493;51.496;7.210;2023-04-25T12:41:34;2.70;;;1.30;;
2966;SDS011;1493;51.496;7.210;2023-04-25T12:44:01;4.50;;;1.50;;
2966;SDS011;1493;51.496;7.210;2023-04-25T12:46:27;2.53;;;1.10;;
2966;SDS011;1493;51.496;7.210;2023-04-25T12:48:54;2.67;;;1.10;;
2966;SDS011;1493;51.496;7.210;2023-04-25T12:51:22;5.27;;;1.23;;
2966;SDS011;1493;51.496;7.210;2023-04-25T12:53:50;5.93;;;1.03;;
2966;SDS011;1493;51.496;7.210;2023-04-25T12:56:17;5.27;;;1.20;;
2966;SDS011;1493;51.496;7.210;2023-04-25T12:58:46;2.90;;;1.13;;
2966;SDS011;1493;51.496;7.210;2023-04-25T13:01:13;5.87;;;1.47;;
2966;SDS011;1493;51.496;7.210;2023-04-25T13:03:40;5.23;;;1.30;;
2966;SDS011;1493;51.496;7.210;2023-04-25T13:06:07;3.00;;;1.30;;
2966;SDS011;1493;51.496;7.210;2023-04-25T13:08:34;5.70;;;2.20;;
2966;SDS011;1493;51.496;7.210;2023-04-25T13:11:01;4.93;;;1.13;;
2966;SDS011;1493;51.496;7.210;2023-04-25T13:13:29;4.00;;;1.30;;
2966;SDS011;1493;51.496;7.210;2023-04-25T13:15:58;2.67;;;1.10;;
2966;SDS011;1493;51.496;7.210;2023-04-25T13:18:24;3.73;;;1.10;;
2966;SDS011;1493;51.496;7.210;2023-04-25T13:20:51;3.13;;;1.00;;
2966;SDS011;1493;51.496;7.210;2023-04-25T13:23:19;8.00;;;1.43;;
2966;SDS011;1493;51.496;7.210;2023-04-25T13:25:46;4.13;;;1.40;;
2966;SDS011;1493;51.496;7.210;2023-04-25T13:28:13;5.87;;;1.97;;
2966;SDS011;1493;51.496;7.210;2023-04-25T13:30:41;5.17;;;1.10;;
2966;SDS011;1493;51.496;7.210;2023-04-25T13:33:09;5.73;;;1.40;;
2966;SDS011;1493;51.496;7.210;2023-04-25T13:35:37;4.90;;;1.10;;
2966;SDS011;1493;51.496;7.210;2023-04-25T13:38:04;4.83;;;1.70;;
2966;SDS011;1493;51.496;7.210;2023-04-25T13:40:31;3.10;;;1.00;;
2966;SDS011;1493;51.496;7.210;2023-04-25T13:42:58;3.20;;;1.00;;
2966;SDS011;1493;51.496;7.210;2023-04-25T13:45:25;3.13;;;1.10;;
2966;SDS011;1493;51.496;7.210;2023-04-25T13:47:52;3.80;;;1.30;;
2966;SDS011;1493;51.496;7.210;2023-04-25T13:50:20;3.80;;;1.20;;
2966;SDS011;1493;51.496;7.210;2023-04-25T13:52:47;3.73;;;1.20;;
2966;SDS011;1493;51.496;7.210;2023-04-25T13:55:14;3.80;;;1.30;;
2966;SDS011;1493;51.496;7.210;2023-04-25T13:57:41;4.10;;;1.13;;
2966;SDS011;1493;51.496;7.210;2023-04-25T14:00:09;7.53;;;1.50;;
2966;SDS011;1493;51.496;7.210;2023-04-25T14:02:36;2.70;;;1.73;;
2966;SDS011;1493;51.496;7.210;2023-04-25T14:05:04;2.80;;;1.10;;
2966;SDS011;1493;51.496;7.210;2023-04-25T14:07:33;2.40;;;0.90;;
2966;SDS011;1493;51.496;7.210;2023-04-25T14:10:01;2.83;;;1.20;;
2966;SDS011;1493;51.496;7.210;2023-04-25T14:12:29;2.53;;;1.00;;
2966;SDS011;1493;51.496;7.210;2023-04-25T14:14:55;4.03;;;1.50;;
2966;SDS011;1493;51.496;7.210;2023-04-25T14:17:22;3.43;;;1.07;;
2966;SDS011;1493;51.496;7.210;2023-04-25T14:19:49;2.80;;;1.23;;
2966;SDS011;1493;51.496;7.210;2023-04-25T14:22:16;3.40;;;1.13;;
2966;SDS011;1493;51.496;7.210;2023-04-25T14:24:45;4.97;;;1.50;;
2966;SDS011;1493;51.496;7.210;2023-04-25T14:27:12;2.77;;;1.20;;
2966;SDS011;1493;51.496;7.210;2023-04-25T14:29:39;2.73;;;1.10;;
2966;SDS011;1493;51.496;7.210;2023-04-25T14:32:06;2.30;;;1.20;;
2966;SDS011;1493;51.496;7.210;2023-04-25T14:34:33;3.20;;;1.13;;
2966;SDS011;1493;51.496;7.210;2023-04-25T14:37:00;3.43;;;1.20;;
2966;SDS011;1493;51.496;7.210;2023-04-25T14:39:27;3.53;;;1.13;;
2966;SDS011;1493;51.496;7.210;2023-04-25T14:41:55;3.40;;;1.30;;
2966;SDS011;1493;51.496;7.210;2023-04-25T14:44:22;4.07;;;1.17;;
2966;SDS011;1493;51.496;7.210;2023-04-25T14:46:49;3.27;;;1.00;;
2966;SDS011;1493;51.496;7.210;2023-04-25T14:49:17;4.97;;;1.00;;
2966;SDS011;1493;51.496;7.210;2023-04-25T14:51:44;3.43;;;1.00;;
2966;SDS011;1493;51.496;7.210;2023-04-25T14:54:10;2.80;;;0.90;;
2966;SDS011;1493;51.496;7.210;2023-04-25T14:56:38;2.67;;;0.90;;
2966;SDS011;1493;51.496;7.210;2023-04-25T14:59:06;3.07;;;1.20;;
2966;SDS011;1493;51.496;7.210;2023-04-25T15:01:33;3.93;;;1.10;;
2966;SDS011;1493;51.496;7.210;2023-04-25T15:04:00;3.30;;;1.73;;
2966;SDS011;1493;51.496;7.210;2023-04-25T15:06:26;2.97;;;1.00;;
2966;SDS011;1493;51.496;7.210;2023-04-25T15:08:55;3.53;;;1.00;;
2966;SDS011;1493;51.496;7.210;2023-04-25T15:11:22;3.50;;;0.90;;
2966;SDS011;1493;51.496;7.210;2023-04-25T15:13:49;6.20;;;1.60;;
2966;SDS011;1493;51.496;7.210;2023-04-25T15:16:17;4.13;;;1.43;;
2966;SDS011;1493;51.496;7.210;2023-04-25T15:18:44;2.80;;;1.17;;
2966;SDS011;1493;51.496;7.210;2023-04-25T15:21:11;5.60;;;1.77;;